Time;durP1;ratioP1;P1;durP2;ratioP2;P2;SDS_P1;SDS_P2;PMS_P1;PMS_P2;Temp;Humidity;BMP_temperature;BMP_pressure;BME280_temperature;BME280_humidity;BME280_pressure;Samples;Min_cycle;Max_cycle;Signal;HPM_P1;HPM_P2
2023/02/12 00:00:21;;;;;;;0.40;0.40;;;;;;;;;;4975797;28;20556;-72
2023/02/12 00:02:47;;;;;;;0.40;0.40;;;;;;;;;;4975621;28;20092;-74
2023/02/12 00:05:15;;;;;;;0.50;0.50;;;;;;;;;;4959626;28;20034;-73
2023/02/12 00:07:43;;;;;;;0.40;0.40;;;;;;;;;;4975812;28;20038;-73
2023/02/12 00:10:10;;;;;;;0.50;0.50;;;;;;;;;;4975632;28;20038;-73
2023/02/12 00:12:36;;;;;;;0.40;0.40;;;;;;;;;;4975489;28;20049;-72
2023/02/12 00:15:01;;;;;;;0.50;0.50;;;;;;;;;;4959726;28;20030;-72
2023/02/12 00:17:29;;;;;;;0.50;0.50;;;;;;;;;;4975866;28;20116;-72
2023/02/12 00:19:57;;;;;;;0.47;0.47;;;;;;;;;;4960010;28;20038;-72
2023/02/12 00:22:26;;;;;;;0.40;0.40;;;;;;;;;;4975357;28;20189;-72
2023/02/12 00:24:52;;;;;;;0.40;0.40;;;;;;;;;;4959638;28;20365;-72
2023/02/12 00:27:18;;;;;;;0.50;0.50;;;;;;;;;;4959345;28;20034;-73
2023/02/12 00:29:44;;;;;;;0.40;0.40;;;;;;;;;;4959467;28;20370;-72
2023/02/12 00:32:13;;;;;;;0.43;0.43;;;;;;;;;;4959431;28;20120;-72
2023/02/12 00:34:41;;;;;;;0.40;0.40;;;;;;;;;;4959192;28;20074;-72
2023/02/12 00:37:07;;;;;;;0.50;0.50;;;;;;;;;;4991672;28;20034;-70
2023/02/12 00:39:36;;;;;;;0.40;0.40;;;;;;;;;;4975462;28;20129;-72
2023/02/12 00:42:03;;;;;;;0.50;0.50;;;;;;;;;;4991817;28;20050;-72
2023/02/12 00:44:29;;;;;;;0.50;0.50;;;;;;;;;;4959308;28;20038;-71
2023/02/12 00:46:55;;;;;;;0.50;0.50;;;;;;;;;;4975477;28;20045;-71
2023/02/12 00:49:21;;;;;;;0.50;0.50;;;;;;;;;;4991524;28;20026;-72
2023/02/12 00:51:47;;;;;;;0.50;0.50;;;;;;;;;;4976250;28;20101;-71
2023/02/12 00:54:12;;;;;;;0.50;0.50;;;;;;;;;;4962680;28;20070;-71
2023/02/12 00:56:38;;;;;;;0.50;0.50;;;;;;;;;;4962909;28;20092;-70
2023/02/12 00:59:04;;;;;;;0.50;0.50;;;;;;;;;;4995332;28;20038;-72
2023/02/12 01:01:29;;;;;;;0.50;0.50;;;;;;;;;;4962854;28;20461;-71
2023/02/12 01:03:55;;;;;;;0.50;0.50;;;;;;;;;;4978601;28;20030;-71
2023/02/12 01:06:21;;;;;;;0.50;0.50;;;;;;;;;;4962572;28;20393;-71
2023/02/12 01:08:49;;;;;;;0.50;0.50;;;;;;;;;;5011629;28;20350;-71
2023/02/12 01:11:14;;;;;;;0.50;0.50;;;;;;;;;;4962733;28;20061;-71
2023/02/12 01:13:40;;;;;;;0.47;0.47;;;;;;;;;;4978565;28;20458;-70
2023/02/12 01:16:07;;;;;;;0.50;0.50;;;;;;;;;;4978755;28;20027;-70
2023/02/12 01:18:34;;;;;;;0.40;0.40;;;;;;;;;;4995016;28;20039;-71
2023/02/12 01:21:00;;;;;;;0.50;0.50;;;;;;;;;;4962553;28;20066;-71
2023/02/12 01:23:26;;;;;;;0.50;0.50;;;;;;;;;;4962454;28;20070;-71
2023/02/12 01:25:52;;;;;;;0.47;0.47;;;;;;;;;;4978546;28;20030;-70
2023/02/12 01:28:18;;;;;;;0.40;0.40;;;;;;;;;;4978931;28;20538;-71
2023/02/12 01:30:43;;;;;;;0.53;0.53;;;;;;;;;;4994453;28;20120;-70
2023/02/12 01:33:09;;;;;;;0.40;0.40;;;;;;;;;;4978432;28;20053;-71
2023/02/12 01:35:36;;;;;;;0.40;0.40;;;;;;;;;;4978402;28;20100;-71
2023/02/12 01:38:02;;;;;;;0.50;0.50;;;;;;;;;;4978123;28;20035;-71
2023/02/12 01:40:27;;;;;;;0.40;0.40;;;;;;;;;;4962212;28;20034;-71
2023/02/12 01:42:53;;;;;;;0.50;0.50;;;;;;;;;;4978170;28;20049;-70
2023/02/12 01:45:22;;;;;;;0.50;0.50;;;;;;;;;;4977956;28;20046;-70
2023/02/12 01:47:47;;;;;;;0.50;0.50;;;;;;;;;;4978090;28;20190;-71
2023/02/12 01:50:15;;;;;;;0.60;0.60;;;;;;;;;;4978008;28;20504;-70
2023/02/12 01:52:47;;;;;;;2.13;0.67;;;;;;;;;;4979569;28;20046;-70
2023/02/12 01:55:13;;;;;;;0.40;0.40;;;;;;;;;;4981085;28;20096;-70
2023/02/12 01:57:42;;;;;;;0.40;0.40;;;;;;;;;;5013946;28;20095;-70
2023/02/12 02:00:10;;;;;;;0.40;0.40;;;;;;;;;;4965300;28;20096;-70
2023/02/12 02:02:43;;;;;;;0.47;0.47;;;;;;;;;;4981419;28;20026;-70
2023/02/12 02:05:11;;;;;;;0.40;0.40;;;;;;;;;;4964981;28;20168;-70
2023/02/12 02:07:38;;;;;;;0.50;0.50;;;;;;;;;;4964964;28;20103;-70
2023/02/12 02:10:05;;;;;;;0.50;0.50;;;;;;;;;;4981226;28;20037;-71
2023/02/12 02:15:16;;;;;;;0.50;0.50;;;;;;;;;;4980673;28;20453;-70
2023/02/12 02:17:51;;;;;;;0.50;0.50;;;;;;;;;;4964881;28;20132;-70
2023/02/12 02:20:32;;;;;;;0.50;0.50;;;;;;;;;;4964694;28;20033;-70
2023/02/12 02:22:58;;;;;;;;;;;;;;;;;;4964814;28;20045;-71
2023/02/12 02:25:35;;;;;;;0.50;0.50;;;;;;;;;;4964648;28;19928;-70
2023/02/12 02:28:00;;;;;;;0.50;0.50;;;;;;;;;;4964574;28;20038;-71
2023/02/12 02:30:33;;;;;;;0.60;0.60;;;;;;;;;;4980421;28;20099;-70
2023/02/12 02:33:09;;;;;;;0.50;0.50;;;;;;;;;;4964249;28;20021;-70
2023/02/12 02:35:39;;;;;;;0.50;0.50;;;;;;;;;;4964470;28;20530;-70
2023/02/12 02:38:05;;;;;;;0.40;0.40;;;;;;;;;;4964258;28;20468;-70
2023/02/12 02:40:34;;;;;;;0.50;0.50;;;;;;;;;;4996463;28;20129;-70
2023/02/12 02:43:02;;;;;;;0.40;0.40;;;;;;;;;;4964192;28;20592;-70
2023/02/12 02:45:28;;;;;;;0.50;0.50;;;;;;;;;;4964022;28;20038;-70
2023/02/12 02:47:54;;;;;;;0.40;0.40;;;;;;;;;;4964177;28;20349;-70
2023/02/12 02:50:21;;;;;;;0.50;0.50;;;;;;;;;;4964073;28;20034;-70
2023/02/12 02:52:53;;;;;;;0.40;0.40;;;;;;;;;;4963905;28;20033;-71
2023/02/12 02:55:20;;;;;;;0.40;0.40;;;;;;;;;;4963947;28;20480;-70
2023/02/12 02:58:01;;;;;;;0.50;0.50;;;;;;;;;;4963799;28;20029;-71
2023/02/12 03:00:32;;;;;;;0.50;0.50;;;;;;;;;;4963877;28;20464;-71
2023/02/12 03:03:01;;;;;;;0.40;0.40;;;;;;;;;;4979819;28;20123;-70
2023/02/12 03:05:32;;;;;;;0.40;0.40;;;;;;;;;;4996118;28;20045;-70
2023/02/12 03:08:07;;;;;;;0.50;0.50;;;;;;;;;;4979819;28;20045;-71
2023/02/12 03:10:35;;;;;;;0.57;0.57;;;;;;;;;;4963558;28;20037;-69
2023/02/12 03:13:06;;;;;;;0.43;0.43;;;;;;;;;;4996066;28;20034;-69
2023/02/12 03:15:34;;;;;;;0.40;0.40;;;;;;;;;;4962974;28;20502;-70
2023/02/12 03:18:02;;;;;;;0.47;0.47;;;;;;;;;;4995962;28;20052;-70
2023/02/12 03:20:29;;;;;;;0.40;0.40;;;;;;;;;;4963474;28;20034;-70
2023/02/12 03:22:57;;;;;;;0.40;0.40;;;;;;;;;;4963542;28;20041;-70
2023/02/12 03:25:47;;;;;;;0.50;0.50;;;;;;;;;;4963437;28;20435;-70
2023/02/12 03:28:42;;;;;;;0.40;0.40;;;;;;;;;;4979699;28;20045;-71
2023/02/12 03:31:20;;;;;;;0.47;0.47;;;;;;;;;;4958864;28;20571;-71
2023/02/12 03:33:45;;;;;;;0.40;0.40;;;;;;;;;;4963365;28;20049;-71
2023/02/12 03:36:29;;;;;;;0.50;0.50;;;;;;;;;;4963239;28;20052;-71
2023/02/12 03:38:57;;;;;;;0.50;0.50;;;;;;;;;;4963423;28;20893;-71
2023/02/12 03:41:36;;;;;;;0.50;0.50;;;;;;;;;;4979222;28;20423;-71
2023/02/12 03:44:07;;;;;;;0.50;0.50;;;;;;;;;;4963144;28;20495;-71
2023/02/12 03:46:38;;;;;;;0.50;0.50;;;;;;;;;;4995488;28;20041;-72
2023/02/12 03:49:11;;;;;;;0.50;0.50;;;;;;;;;;4963098;28;20038;-71
2023/02/12 03:51:38;;;;;;;0.40;0.40;;;;;;;;;;4962879;28;20538;-71
2023/02/12 03:54:04;;;;;;;0.60;0.60;;;;;;;;;;4962772;28;20399;-72
2023/02/12 03:56:33;;;;;;;0.40;0.40;;;;;;;;;;4962957;28;20422;-71
2023/02/12 03:58:59;;;;;;;0.40;0.40;;;;;;;;;;4962916;28;20059;-72
2023/02/12 04:01:25;;;;;;;0.47;0.47;;;;;;;;;;4962803;28;20038;-71
2023/02/12 04:03:51;;;;;;;0.60;0.60;;;;;;;;;;4963100;28;20040;-72
2023/02/12 04:06:21;;;;;;;0.50;0.50;;;;;;;;;;4995376;28;20033;-71
2023/02/12 04:08:46;;;;;;;0.70;0.70;;;;;;;;;;4979185;28;20176;-71
2023/02/12 04:11:19;;;;;;;0.50;0.50;;;;;;;;;;4962822;28;20049;-72
2023/02/12 04:14:05;;;;;;;0.50;0.50;;;;;;;;;;4963077;28;20069;-71
2023/02/12 04:16:39;;;;;;;0.40;0.40;;;;;;;;;;4994345;28;20396;-71
2023/02/12 04:19:06;;;;;;;0.60;0.60;;;;;;;;;;4963020;28;20042;-71
2023/02/12 04:21:52;;;;;;;0.50;0.50;;;;;;;;;;4962908;28;20088;-71
2023/02/12 04:24:24;;;;;;;0.40;0.40;;;;;;;;;;4978584;28;20145;-72
2023/02/12 04:26:59;;;;;;;0.40;0.40;;;;;;;;;;4981729;28;20045;-70
2023/02/12 04:29:24;;;;;;;0.50;0.50;;;;;;;;;;4966542;28;20059;-72
2023/02/12 04:31:50;;;;;;;0.47;0.47;;;;;;;;;;4982524;28;20136;-70
2023/02/12 04:34:25;;;;;;;0.73;0.73;;;;;;;;;;4966742;28;20057;-72
2023/02/12 04:36:50;;;;;;;0.50;0.50;;;;;;;;;;4966487;28;20574;-71
2023/02/12 04:39:19;;;;;;;0.40;0.40;;;;;;;;;;4966674;28;20037;-72
2023/02/12 04:41:44;;;;;;;0.40;0.40;;;;;;;;;;4966301;28;20041;-72
2023/02/12 04:44:14;;;;;;;0.40;0.40;;;;;;;;;;4998606;28;20034;-72
2023/02/12 04:46:40;;;;;;;0.63;0.63;;;;;;;;;;4998421;28;20037;-72
2023/02/12 04:49:05;;;;;;;0.40;0.40;;;;;;;;;;4966310;28;20048;-72
2023/02/12 04:51:31;;;;;;;0.60;0.60;;;;;;;;;;4966304;28;20069;-73
2023/02/12 04:53:57;;;;;;;0.40;0.40;;;;;;;;;;4966047;28;20054;-72
2023/02/12 04:56:22;;;;;;;0.40;0.40;;;;;;;;;;4966116;28;20116;-72
2023/02/12 04:58:49;;;;;;;0.40;0.40;;;;;;;;;;4966433;28;20022;-72
2023/02/12 05:01:14;;;;;;;0.50;0.50;;;;;;;;;;4982093;28;20180;-73
2023/02/12 05:03:40;;;;;;;0.40;0.40;;;;;;;;;;4998418;28;20539;-72
2023/02/12 05:06:07;;;;;;;0.40;0.40;;;;;;;;;;4966054;28;20073;-72
2023/02/12 05:08:33;;;;;;;0.77;0.77;;;;;;;;;;4965897;28;20068;-72
2023/02/12 05:11:06;;;;;;;0.50;0.50;;;;;;;;;;4965791;28;20073;-72
2023/02/12 05:13:31;;;;;;;0.50;0.50;;;;;;;;;;4965676;28;20069;-72
2023/02/12 05:15:57;;;;;;;0.50;0.50;;;;;;;;;;4981828;28;20547;-72
2023/02/12 05:18:23;;;;;;;0.50;0.50;;;;;;;;;;4965740;28;20365;-71
2023/02/12 05:20:55;;;;;;;0.40;0.40;;;;;;;;;;4965987;28;20037;-72
2023/02/12 05:23:21;;;;;;;0.50;0.50;;;;;;;;;;4965880;28;20053;-72
2023/02/12 05:25:47;;;;;;;0.50;0.50;;;;;;;;;;4965403;28;20034;-72
2023/02/12 05:28:13;;;;;;;0.40;0.40;;;;;;;;;;4965717;28;20379;-72
2023/02/12 05:30:38;;;;;;;0.40;0.40;;;;;;;;;;4965593;28;20472;-72
2023/02/12 05:33:04;;;;;;;0.40;0.40;;;;;;;;;;4965340;28;20037;-71
2023/02/12 05:35:29;;;;;;;0.40;0.40;;;;;;;;;;4981489;28;20033;-72
2023/02/12 05:37:55;;;;;;;0.40;0.40;;;;;;;;;;4980780;28;20073;-72
2023/02/12 05:40:21;;;;;;;1.10;0.90;;;;;;;;;;4981571;28;20038;-71
2023/02/12 05:42:47;;;;;;;0.40;0.40;;;;;;;;;;4965341;28;20137;-72
2023/02/12 05:45:12;;;;;;;0.40;0.40;;;;;;;;;;4965445;28;20041;-72
2023/02/12 05:47:38;;;;;;;0.80;0.60;;;;;;;;;;4965341;28;20124;-73
2023/02/12 05:50:04;;;;;;;0.67;0.67;;;;;;;;;;4965319;28;20057;-72
2023/02/12 05:52:29;;;;;;;0.50;0.50;;;;;;;;;;4964809;28;20037;-73
2023/02/12 05:54:55;;;;;;;0.40;0.40;;;;;;;;;;4964979;28;20446;-71
2023/02/12 05:57:20;;;;;;;0.60;0.60;;;;;;;;;;4965291;28;20048;-72
2023/02/12 05:59:46;;;;;;;0.50;0.50;;;;;;;;;;4964957;28;20041;-72
2023/02/12 06:02:11;;;;;;;0.50;0.50;;;;;;;;;;4981151;28;20180;-72
2023/02/12 06:04:37;;;;;;;0.50;0.50;;;;;;;;;;4997183;28;20096;-72
2023/02/12 06:07:03;;;;;;;0.40;0.40;;;;;;;;;;4964889;28;20041;-73
2023/02/12 06:09:29;;;;;;;0.50;0.50;;;;;;;;;;4964818;28;20037;-72
2023/02/12 06:11:54;;;;;;;0.47;0.47;;;;;;;;;;4981159;28;20041;-73
2023/02/12 06:14:20;;;;;;;0.47;0.47;;;;;;;;;;4964805;28;20454;-72
2023/02/12 06:16:47;;;;;;;0.40;0.40;;;;;;;;;;4964657;28;20042;-72
2023/02/12 06:19:14;;;;;;;0.40;0.40;;;;;;;;;;4980571;28;20342;-72
2023/02/12 06:21:40;;;;;;;0.50;0.50;;;;;;;;;;4964692;28;20038;-72
2023/02/12 06:24:06;;;;;;;0.40;0.40;;;;;;;;;;4964615;28;20037;-73
2023/02/12 06:26:31;;;;;;;0.40;0.40;;;;;;;;;;4964554;28;20041;-72
2023/02/12 06:28:58;;;;;;;0.50;0.50;;;;;;;;;;4980631;28;20084;-73
2023/02/12 06:31:25;;;;;;;0.40;0.40;;;;;;;;;;4980602;28;20065;-72
2023/02/12 06:33:51;;;;;;;0.50;0.50;;;;;;;;;;4980436;28;20046;-72
2023/02/12 06:36:17;;;;;;;0.47;0.47;;;;;;;;;;4964348;28;20041;-73
2023/02/12 06:38:43;;;;;;;0.40;0.40;;;;;;;;;;4964214;28;20041;-72
2023/02/12 06:41:09;;;;;;;0.40;0.40;;;;;;;;;;4964368;28;20049;-73
2023/02/12 06:43:34;;;;;;;0.50;0.50;;;;;;;;;;4980593;28;20561;-72
2023/02/12 06:46:01;;;;;;;0.50;0.50;;;;;;;;;;4964316;28;20049;-73
2023/02/12 06:48:26;;;;;;;0.50;0.50;;;;;;;;;;4964406;28;20037;-72
2023/02/12 06:50:52;;;;;;;0.50;0.50;;;;;;;;;;4964338;28;20120;-73
2023/02/12 06:53:18;;;;;;;0.40;0.40;;;;;;;;;;4963856;28;20070;-72
2023/02/12 06:55:43;;;;;;;0.50;0.50;;;;;;;;;;4963878;28;20127;-72
2023/02/12 06:58:09;;;;;;;0.50;0.50;;;;;;;;;;4979840;28;20038;-73
2023/02/12 07:00:34;;;;;;;0.50;0.50;;;;;;;;;;4963858;28;20044;-73
2023/02/12 07:03:00;;;;;;;0.50;0.50;;;;;;;;;;4964140;28;20021;-72
2023/02/12 07:05:26;;;;;;;0.50;0.50;;;;;;;;;;4963918;28;20030;-72
2023/02/12 07:07:51;;;;;;;0.40;0.40;;;;;;;;;;4980060;28;20464;-73
2023/02/12 07:10:17;;;;;;;0.40;0.40;;;;;;;;;;4963754;28;20030;-72
2023/02/12 07:12:43;;;;;;;0.50;0.50;;;;;;;;;;4963787;28;20046;-72
2023/02/12 07:15:09;;;;;;;0.53;0.50;;;;;;;;;;4963597;28;20052;-72
2023/02/12 07:17:34;;;;;;;0.43;0.43;;;;;;;;;;4963661;28;20053;-73
2023/02/12 07:20:00;;;;;;;0.50;0.50;;;;;;;;;;4979843;28;20044;-70
2023/02/12 07:22:25;;;;;;;0.50;0.50;;;;;;;;;;4963705;28;20072;-72
2023/02/12 07:24:51;;;;;;;0.40;0.40;;;;;;;;;;4963722;28;20436;-73
2023/02/12 07:27:17;;;;;;;0.50;0.50;;;;;;;;;;4963569;28;20057;-72
2023/02/12 07:29:43;;;;;;;0.50;0.50;;;;;;;;;;4963372;28;20038;-72
2023/02/12 07:32:08;;;;;;;0.57;0.57;;;;;;;;;;4963637;28;20034;-72
2023/02/12 07:34:34;;;;;;;0.50;0.50;;;;;;;;;;4963209;28;20053;-72
2023/02/12 07:37:00;;;;;;;0.50;0.50;;;;;;;;;;4979782;28;20547;-71
2023/02/12 07:39:25;;;;;;;0.50;0.50;;;;;;;;;;4963537;28;20033;-72
2023/02/12 07:41:51;;;;;;;0.47;0.47;;;;;;;;;;4979432;28;20042;-72
2023/02/12 07:44:17;;;;;;;0.50;0.50;;;;;;;;;;4963206;28;20038;-72
2023/02/12 07:46:43;;;;;;;0.43;0.43;;;;;;;;;;4963063;28;20361;-72
2023/02/12 07:49:11;;;;;;;0.53;0.53;;;;;;;;;;4979418;28;20436;-73
2023/02/12 07:51:37;;;;;;;0.40;0.40;;;;;;;;;;4962969;28;20045;-72
2023/02/12 07:54:03;;;;;;;0.40;0.40;;;;;;;;;;4995248;28;20058;-72
2023/02/12 07:56:34;;;;;;;0.50;0.50;;;;;;;;;;4963171;28;20522;-72
2023/02/12 07:59:03;;;;;;;0.52;0.52;;;;;;;;;;4979889;28;20041;-72
2023/02/12 08:01:32;;;;;;;0.50;0.50;;;;;;;;;;4962769;28;20048;-72
2023/02/12 08:04:16;;;;;;;0.50;0.50;;;;;;;;;;4995288;28;20388;-72
2023/02/12 08:06:44;;;;;;;0.43;0.43;;;;;;;;;;4995071;28;20044;-73
2023/02/12 08:09:11;;;;;;;0.50;0.50;;;;;;;;;;4963018;28;20397;-73
2023/02/12 08:11:37;;;;;;;0.40;0.40;;;;;;;;;;4995055;28;20034;-72
2023/02/12 08:14:03;;;;;;;0.50;0.50;;;;;;;;;;4962662;28;20042;-72
2023/02/12 08:16:30;;;;;;;0.50;0.50;;;;;;;;;;4962952;28;20100;-72
2023/02/12 08:18:56;;;;;;;0.40;0.40;;;;;;;;;;4962806;28;20381;-72
2023/02/12 08:21:26;;;;;;;0.50;0.50;;;;;;;;;;4978987;28;20519;-72
2023/02/12 08:23:56;;;;;;;0.40;0.40;;;;;;;;;;4979097;28;20398;-72
2023/02/12 08:26:22;;;;;;;0.60;0.60;;;;;;;;;;4978752;28;20034;-72
2023/02/12 08:28:53;;;;;;;0.47;0.47;;;;;;;;;;4962666;28;20065;-73
2023/02/12 08:31:28;;;;;;;0.50;0.50;;;;;;;;;;4962596;28;20076;-72
2023/02/12 08:33:54;;;;;;;0.40;0.40;;;;;;;;;;4994773;28;20070;-72
2023/02/12 08:36:21;;;;;;;0.50;0.50;;;;;;;;;;4962536;28;20465;-72
2023/02/12 08:38:47;;;;;;;0.40;0.40;;;;;;;;;;4962424;28;20376;-71
2023/02/12 08:41:14;;;;;;;0.40;0.40;;;;;;;;;;4962702;28;20046;-72
2023/02/12 08:43:41;;;;;;;0.40;0.40;;;;;;;;;;4962543;28;20417;-72
2023/02/12 08:46:08;;;;;;;0.50;0.50;;;;;;;;;;4962563;28;20487;-72
2023/02/12 08:48:33;;;;;;;0.40;0.40;;;;;;;;;;4978870;28;20040;-72
2023/02/12 08:51:11;;;;;;;0.40;0.40;;;;;;;;;;4978696;28;20034;-72
2023/02/12 08:53:37;;;;;;;0.50;0.50;;;;;;;;;;4994774;28;20054;-72
2023/02/12 08:56:03;;;;;;;0.63;0.60;;;;;;;;;;4995276;28;20041;-72
2023/02/12 08:58:29;;;;;;;0.50;0.50;;;;;;;;;;4978438;28;20045;-72
2023/02/12 09:00:55;;;;;;;0.40;0.40;;;;;;;;;;4962381;28;20037;-72
2023/02/12 09:03:21;;;;;;;0.40;0.40;;;;;;;;;;4962625;28;20127;-71
2023/02/12 09:05:47;;;;;;;0.50;0.50;;;;;;;;;;4962770;28;20033;-72
2023/02/12 09:08:13;;;;;;;0.40;0.40;;;;;;;;;;4962177;28;20034;-71
2023/02/12 09:10:39;;;;;;;0.43;0.43;;;;;;;;;;4962255;28;20037;-72
2023/02/12 09:13:05;;;;;;;0.40;0.40;;;;;;;;;;4996169;28;20044;-71
2023/02/12 09:15:35;;;;;;;0.50;0.50;;;;;;;;;;4965976;28;20124;-72
2023/02/12 09:18:02;;;;;;;0.50;0.50;;;;;;;;;;4965987;28;20037;-72
2023/02/12 09:20:29;;;;;;;0.47;0.47;;;;;;;;;;4965547;28;20034;-72
2023/02/12 09:22:55;;;;;;;0.50;0.50;;;;;;;;;;4997851;28;20095;-72
2023/02/12 09:25:20;;;;;;;0.50;0.50;;;;;;;;;;4965638;28;20077;-72
2023/02/12 09:27:46;;;;;;;0.47;0.47;;;;;;;;;;4965611;28;20042;-72
2023/02/12 09:30:12;;;;;;;0.50;0.50;;;;;;;;;;4965524;28;20038;-72
2023/02/12 09:32:37;;;;;;;0.40;0.40;;;;;;;;;;4965634;28;20161;-71
2023/02/12 09:35:03;;;;;;;0.60;0.60;;;;;;;;;;4965846;28;20050;-72
2023/02/12 09:37:29;;;;;;;0.40;0.40;;;;;;;;;;4965679;28;20468;-72
2023/02/12 09:39:54;;;;;;;0.50;0.50;;;;;;;;;;4965329;28;20535;-72
2023/02/12 09:42:27;;;;;;;0.60;0.60;;;;;;;;;;4981722;28;20169;-72
2023/02/12 09:45:00;;;;;;;0.50;0.50;;;;;;;;;;4998072;28;20057;-72
2023/02/12 09:47:32;;;;;;;0.50;0.50;;;;;;;;;;4965727;28;20045;-72
2023/02/12 09:50:02;;;;;;;0.40;0.40;;;;;;;;;;4965752;28;20402;-72
2023/02/12 09:52:28;;;;;;;;;;;;;;;;;;4998842;28;20428;-72
2023/02/12 09:54:54;;;;;;;0.50;0.50;;;;;;;;;;4981957;28;19921;-71
2023/02/12 09:57:29;;;;;;;0.50;0.50;;;;;;;;;;4965452;28;20092;-72
2023/02/12 10:00:02;;;;;;;0.50;0.50;;;;;;;;;;4981486;28;20038;-72
2023/02/12 10:02:33;;;;;;;0.50;0.50;;;;;;;;;;4981601;28;20502;-70
2023/02/12 10:04:59;;;;;;;0.50;0.50;;;;;;;;;;4964848;28;20030;-70
2023/02/12 10:07:54;;;;;;;0.50;0.50;;;;;;;;;;4964981;28;20044;-70
2023/02/12 10:10:35;;;;;;;0.40;0.40;;;;;;;;;;4976405;28;20446;-70
2023/02/12 10:13:00;;;;;;;0.40;0.40;;;;;;;;;;4964727;28;20128;-70
2023/02/12 10:15:44;;;;;;;0.40;0.40;;;;;;;;;;4964805;28;20133;-71
2023/02/12 10:18:19;;;;;;;0.50;0.50;;;;;;;;;;4964671;28;20169;-71
2023/02/12 10:20:50;;;;;;;0.40;0.40;;;;;;;;;;4964607;28;20045;-73
2023/02/12 10:23:24;;;;;;;0.30;0.30;;;;;;;;;;4964334;28;20120;-72
2023/02/12 10:25:51;;;;;;;0.35;0.35;;;;;;;;;;4964489;28;20044;-74
2023/02/12 10:28:24;;;;;;;5.88;0.50;;;;;;;;;;4980667;28;20092;-76
2023/02/12 10:30:57;;;;;;;5.85;0.50;;;;;;;;;;4964773;28;20065;-79
2023/02/12 10:33:26;;;;;;;2.83;0.30;;;;;;;;;;4964421;28;20041;-79
2023/02/12 10:35:58;;;;;;;3.47;0.20;;;;;;;;;;4964787;28;20048;-79
2023/02/12 10:38:26;;;;;;;0.73;0.43;;;;;;;;;;4996872;28;20046;-81
2023/02/12 10:40:56;;;;;;;3.95;0.90;;;;;;;;;;4980630;28;20085;-78
2023/02/12 10:43:22;;;;;;;0.85;0.70;;;;;;;;;;4964336;28;20029;-76
2023/02/12 10:45:49;;;;;;;6.10;0.90;;;;;;;;;;4980127;28;20476;-74
2023/02/12 10:48:20;;;;;;;5.85;0.90;;;;;;;;;;4964018;28;20044;-74
2023/02/12 10:50:58;;;;;;;14.88;1.48;;;;;;;;;;4964180;28;20068;-74
2023/02/12 10:53:25;;;;;;;8.95;1.00;;;;;;;;;;4963716;28;20461;-74
2023/02/12 10:56:05;;;;;;;3.00;1.10;;;;;;;;;;4980608;28;20053;-74
2023/02/12 10:58:30;;;;;;;3.33;1.10;;;;;;;;;;4964415;28;20041;-73
2023/02/12 11:01:00;;;;;;;2.83;1.10;;;;;;;;;;4964257;28;20037;-73
2023/02/12 11:03:27;;;;;;;;;;;;;;;;;;4964861;28;20456;-73
2023/02/12 11:05:55;;;;;;;7.43;0.70;;;;;;;;;;4963842;28;19914;-73
2023/02/12 11:08:34;;;;;;;4.03;0.70;;;;;;;;;;4995886;28;20593;-73
2023/02/12 11:11:06;;;;;;;0.77;0.77;;;;;;;;;;4963844;28;20137;-74
2023/02/12 11:13:32;;;;;;;2.08;0.63;;;;;;;;;;4963556;28;20160;-74
2023/02/12 11:15:59;;;;;;;0.68;0.60;;;;;;;;;;4963673;28;20128;-74
2023/02/12 11:18:31;;;;;;;0.50;0.50;;;;;;;;;;4963464;28;20037;-73
2023/02/12 11:21:01;;;;;;;2.83;0.70;;;;;;;;;;4979661;28;20037;-73
2023/02/12 11:23:26;;;;;;;1.83;0.68;;;;;;;;;;4963475;28;20049;-73
2023/02/12 11:26:00;;;;;;;1.77;0.90;;;;;;;;;;4963481;28;20041;-73
2023/02/12 11:28:26;;;;;;;3.05;1.00;;;;;;;;;;4995756;28;20046;-73
2023/02/12 11:31:00;;;;;;;2.20;0.93;;;;;;;;;;4995435;28;20026;-74
2023/02/12 11:33:29;;;;;;;2.85;1.00;;;;;;;;;;5012021;28;20120;-73
2023/02/12 11:36:06;;;;;;;4.70;1.10;;;;;;;;;;4978853;28;20045;-74
2023/02/12 11:38:33;;;;;;;4.88;1.30;;;;;;;;;;4979267;28;20089;-74
2023/02/12 11:41:02;;;;;;;3.92;1.25;;;;;;;;;;4963411;28;20337;-73
2023/02/12 11:43:29;;;;;;;3.00;0.90;;;;;;;;;;4963129;28;20037;-72
2023/02/12 11:45:56;;;;;;;2.67;0.95;;;;;;;;;;4963119;28;20034;-72
2023/02/12 11:48:30;;;;;;;1.77;1.10;;;;;;;;;;4963244;28;20145;-73
2023/02/12 11:50:57;;;;;;;2.08;1.00;;;;;;;;;;4963074;28;20040;-73
2023/02/12 11:53:32;;;;;;;1.88;1.17;;;;;;;;;;4959655;28;20120;-73
2023/02/12 11:56:00;;;;;;;2.05;1.13;;;;;;;;;;4959653;28;20062;-71
2023/02/12 11:58:28;;;;;;;1.83;1.05;;;;;;;;;;4959798;28;20078;-72
2023/02/12 12:01:12;;;;;;;3.53;1.40;;;;;;;;;;4975455;28;20046;-70
2023/02/12 12:03:48;;;;;;;5.05;1.38;;;;;;;;;;4991894;28;20038;-73
2023/02/12 12:06:32;;;;;;;3.67;1.13;;;;;;;;;;4974146;28;20026;-70
2023/02/12 12:08:58;;;;;;;4.95;1.10;;;;;;;;;;4951181;28;20504;-68
2023/02/12 12:11:25;;;;;;;2.30;1.25;;;;;;;;;;4955923;28;20031;-70
2023/02/12 12:13:57;;;;;;;3.75;1.08;;;;;;;;;;4965111;28;20050;-70
2023/02/12 12:22:14;;;;;;;5.75;1.20;;;;;;;;;;4970341;28;20863;-71
2023/02/12 12:24:46;;;;;;;2.47;1.20;;;;;;;;;;4947931;28;20182;-70
2023/02/12 12:30:08;;;;;;;3.85;1.35;;;;;;;;;;4971151;28;20404;-70
2023/02/12 12:32:35;;;;;;;2.65;1.00;;;;;;;;;;4981198;28;20042;-70
2023/02/12 12:35:01;;;;;;;1.75;1.08;;;;;;;;;;4956219;28;20043;-69
2023/02/12 12:37:28;;;;;;;2.35;1.15;;;;;;;;;;4959103;28;20063;-72
2023/02/12 12:39:54;;;;;;;5.70;1.10;;;;;;;;;;4956436;28;20454;-70
2023/02/12 12:42:22;;;;;;;3.15;1.77;;;;;;;;;;4957265;28;20035;-72
2023/02/12 12:44:53;;;;;;;3.80;1.40;;;;;;;;;;4955844;28;20041;-72
2023/02/12 12:47:24;;;;;;;3.42;1.80;;;;;;;;;;4983865;28;20529;-71
2023/02/12 12:49:56;;;;;;;3.75;1.40;;;;;;;;;;4964923;28;20678;-71
2023/02/12 12:52:35;;;;;;;5.68;1.60;;;;;;;;;;4970505;28;20046;-68
2023/02/12 12:55:15;;;;;;;5.95;2.38;;;;;;;;;;4992057;28;20496;-68
2023/02/12 12:57:43;;;;;;;4.43;1.80;;;;;;;;;;5001588;28;20168;-67
2023/02/12 13:00:11;;;;;;;4.53;1.67;;;;;;;;;;4960679;28;20045;-69
2023/02/12 13:03:00;;;;;;;7.57;1.83;;;;;;;;;;4966902;28;20038;-69
2023/02/12 13:05:39;;;;;;;4.37;1.80;;;;;;;;;;4973828;28;20022;-70
2023/02/12 13:08:19;;;;;;;4.20;1.60;;;;;;;;;;4964826;28;20043;-69
2023/02/12 13:10:50;;;;;;;1.77;1.40;;;;;;;;;;4977694;28;20057;-68
2023/02/12 13:13:28;;;;;;;3.60;1.50;;;;;;;;;;4982271;28;20058;-70
2023/02/12 13:16:00;;;;;;;3.50;1.43;;;;;;;;;;4968213;28;20030;-69
2023/02/12 13:18:44;;;;;;;3.53;1.50;;;;;;;;;;4958595;28;20038;-68
2023/02/12 13:21:29;;;;;;;1.97;1.40;;;;;;;;;;4990532;28;20094;-67
2023/02/12 13:24:12;;;;;;;2.10;1.43;;;;;;;;;;4983527;28;20424;-67
2023/02/12 13:26:56;;;;;;;6.78;1.52;;;;;;;;;;4948873;28;20041;-67
2023/02/12 13:29:29;;;;;;;6.97;1.97;;;;;;;;;;4970815;28;20050;-67
2023/02/12 13:31:58;;;;;;;1.70;1.47;;;;;;;;;;4966336;28;20034;-67
2023/02/12 13:34:27;;;;;;;1.93;1.37;;;;;;;;;;4975398;28;20042;-67
2023/02/12 13:36:54;;;;;;;4.23;1.70;;;;;;;;;;4981030;28;20049;-66
2023/02/12 13:39:36;;;;;;;6.63;1.70;;;;;;;;;;4973978;28;20469;-68
2023/02/12 13:42:08;;;;;;;2.57;1.40;;;;;;;;;;4972909;28;20464;-66
2023/02/12 13:44:36;;;;;;;1.67;1.40;;;;;;;;;;5000041;28;20061;-66
2023/02/12 13:47:22;;;;;;;3.67;1.60;;;;;;;;;;4983652;28;20465;-69
2023/02/12 13:49:53;;;;;;;4.73;1.30;;;;;;;;;;4961556;28;20054;-67
2023/02/12 13:52:24;;;;;;;4.37;1.13;;;;;;;;;;4975408;28;20038;-67
2023/02/12 13:55:00;;;;;;;4.67;1.20;;;;;;;;;;4960535;28;20058;-69
2023/02/12 13:57:26;;;;;;;2.00;1.30;;;;;;;;;;4960840;28;20043;-68
2023/02/12 13:59:53;;;;;;;2.97;1.47;;;;;;;;;;4960043;28;20522;-75
2023/02/12 14:02:35;;;;;;;2.37;1.20;;;;;;;;;;4976588;28;20081;-70
2023/02/12 14:05:04;;;;;;;3.50;1.40;;;;;;;;;;4960554;28;20046;-68
2023/02/12 14:07:44;;;;;;;2.20;1.27;;;;;;;;;;4992757;28;20125;-68
2023/02/12 14:10:33;;;;;;;1.90;1.10;;;;;;;;;;4975229;28;20080;-70
2023/02/12 14:13:13;;;;;;;2.30;1.27;;;;;;;;;;4943710;28;20105;-69
2023/02/12 14:15:40;;;;;;;4.32;1.40;;;;;;;;;;4981905;28;20049;-69
2023/02/12 14:18:21;;;;;;;3.47;1.40;;;;;;;;;;4972658;28;20048;-69
2023/02/12 14:20:46;;;;;;;4.05;1.30;;;;;;;;;;4970158;28;20050;-68
2023/02/12 14:23:23;;;;;;;2.23;1.63;;;;;;;;;;4971128;28;20101;-68
2023/02/12 14:25:57;;;;;;;2.60;1.37;;;;;;;;;;4954774;28;20046;-66
2023/02/12 14:28:24;;;;;;;1.87;1.30;;;;;;;;;;4957735;28;20034;-68
2023/02/12 14:31:08;;;;;;;5.07;1.70;;;;;;;;;;4972506;28;20162;-68
2023/02/12 14:33:34;;;;;;;3.80;1.90;;;;;;;;;;4964786;28;20039;-67
2023/02/12 14:36:18;;;;;;;6.37;1.53;;;;;;;;;;4957223;28;20037;-68
2023/02/12 14:38:44;;;;;;;3.90;1.40;;;;;;;;;;4953211;28;20472;-69
2023/02/12 14:41:32;;;;;;;5.83;1.67;;;;;;;;;;4969283;28;20137;-68
2023/02/12 14:44:16;;;;;;;2.80;1.60;;;;;;;;;;4940803;28;20035;-68
2023/02/12 14:46:48;;;;;;;6.10;1.90;;;;;;;;;;4957105;28;20038;-73
2023/02/12 14:49:20;;;;;;;2.70;1.57;;;;;;;;;;4942874;28;20042;-70
2023/02/12 14:51:51;;;;;;;2.77;1.70;;;;;;;;;;4956922;28;20030;-69
2023/02/12 14:54:29;;;;;;;4.95;1.67;;;;;;;;;;4963374;28;20069;-73
2023/02/12 14:56:55;;;;;;;3.83;1.80;;;;;;;;;;4940609;28;20043;-69
2023/02/12 14:59:23;;;;;;;5.37;1.67;;;;;;;;;;4971967;28;20328;-69
2023/02/12 15:01:50;;;;;;;2.43;1.47;;;;;;;;;;4940335;28;20092;-70
2023/02/12 15:04:23;;;;;;;2.63;1.60;;;;;;;;;;4972505;28;20473;-67
2023/02/12 15:06:52;;;;;;;2.17;1.30;;;;;;;;;;4972417;28;20082;-67